Time;durP1;ratioP1;P1;durP2;ratioP2;P2;SDS_P1;SDS_P2;PMS_P1;PMS_P2;Temp;Humidity;BMP_temperature;BMP_pressure;BME280_temperature;BME280_humidity;BME280_pressure;Samples;Min_cycle;Max_cycle;Signal;HPM_P1;HPM_P2
2022/02/27 00:00:07;;;;;;;18.93;3.13;;;5.10;99.90;;;;;;4988349;28;20462;-69
2022/02/27 00:02:38;;;;;;;4.67;2.50;;;5.00;99.90;;;;;;4986941;28;20484;-69
2022/02/27 00:05:04;;;;;;;4.07;2.80;;;5.00;99.90;;;;;;4987095;28;20544;-69
2022/02/27 00:07:30;;;;;;;3.83;2.27;;;5.00;99.90;;;;;;4991122;28;20536;-67
2022/02/27 00:09:56;;;;;;;5.00;2.80;;;4.90;99.90;;;;;;4991013;28;20233;-68
2022/02/27 00:12:21;;;;;;;3.93;2.70;;;4.90;99.90;;;;;;4989116;28;20337;-70
2022/02/27 00:14:47;;;;;;;5.20;2.40;;;4.90;99.90;;;;;;4971260;28;20297;-68
2022/02/27 00:17:13;;;;;;;5.00;3.00;;;4.90;99.90;;;;;;4982248;28;20222;-68
2022/02/27 00:19:38;;;;;;;5.20;2.53;;;4.90;99.90;;;;;;4989485;28;20345;-69
2022/02/27 00:22:04;;;;;;;3.97;2.87;;;4.90;99.90;;;;;;4984837;28;20237;-70
2022/02/27 00:24:30;;;;;;;11.80;2.97;;;4.90;99.90;;;;;;4979230;28;20229;-70
2022/02/27 00:26:56;;;;;;;3.20;2.90;;;4.90;99.90;;;;;;4980291;28;20230;-69
2022/02/27 00:29:22;;;;;;;7.43;2.97;;;4.90;99.90;;;;;;4994688;28;20229;-69
2022/02/27 00:31:48;;;;;;;3.63;3.10;;;5.00;99.90;;;;;;4984698;28;20461;-68
2022/02/27 00:34:14;;;;;;;9.20;3.07;;;5.00;99.90;;;;;;4982409;28;20217;-69
2022/02/27 00:36:40;;;;;;;4.93;3.60;;;4.90;99.90;;;;;;4999468;28;20476;-68
2022/02/27 00:39:06;;;;;;;6.43;3.43;;;4.90;99.90;;;;;;4977577;28;20242;-68
2022/02/27 00:41:31;;;;;;;9.87;3.87;;;4.90;99.90;;;;;;4997480;28;20705;-69
2022/02/27 00:43:57;;;;;;;12.30;4.53;;;4.90;99.90;;;;;;4988595;28;20222;-70
2022/02/27 00:46:23;;;;;;;9.90;4.60;;;4.90;99.90;;;;;;4985899;28;20223;-70
2022/02/27 00:48:48;;;;;;;6.63;3.23;;;4.90;99.90;;;;;;4975925;28;20226;-69
2022/02/27 00:51:14;;;;;;;8.93;3.73;;;4.90;99.90;;;;;;4992557;28;20258;-68
2022/02/27 00:53:40;;;;;;;6.50;4.27;;;4.90;99.90;;;;;;4981018;28;20713;-69
2022/02/27 00:56:05;;;;;;;9.10;4.90;;;4.90;99.90;;;;;;4979398;28;20218;-70
2022/02/27 00:58:31;;;;;;;14.10;5.03;;;4.90;99.90;;;;;;4981023;28;20227;-69
2022/02/27 01:00:57;;;;;;;8.40;4.60;;;4.90;99.90;;;;;;4991288;28;20230;-70
2022/02/27 01:03:23;;;;;;;7.50;4.50;;;4.90;99.90;;;;;;4980834;28;20218;-68
2022/02/27 01:05:48;;;;;;;6.97;4.63;;;5.00;99.90;;;;;;4993247;28;20277;-68
2022/02/27 01:08:14;;;;;;;6.83;4.33;;;4.90;99.90;;;;;;4977692;28;20211;-69
2022/02/27 01:10:40;;;;;;;10.00;4.60;;;4.90;99.90;;;;;;4992394;28;20296;-69
2022/02/27 01:13:07;;;;;;;8.77;3.73;;;4.90;99.90;;;;;;4983291;28;20241;-70
2022/02/27 01:15:32;;;;;;;6.37;3.63;;;4.90;99.90;;;;;;4988103;28;20461;-68
2022/02/27 01:17:58;;;;;;;8.60;4.50;;;4.90;99.90;;;;;;4985552;28;20309;-71
2022/02/27 01:20:24;;;;;;;9.20;5.47;;;4.90;99.90;;;;;;4976384;28;20234;-69
2022/02/27 01:22:50;;;;;;;12.63;6.13;;;4.90;99.90;;;;;;4982768;28;20225;-68
2022/02/27 01:25:17;;;;;;;8.30;5.03;;;4.90;99.90;;;;;;4981433;28;20760;-68
2022/02/27 01:27:42;;;;;;;7.57;4.80;;;4.90;99.90;;;;;;4974796;28;20457;-70
2022/02/27 01:30:09;;;;;;;8.73;5.27;;;4.80;99.90;;;;;;4988892;28;20232;-68
2022/02/27 01:32:37;;;;;;;8.80;4.03;;;4.80;99.90;;;;;;4983898;28;20325;-69
2022/02/27 01:35:07;;;;;;;7.70;4.40;;;4.80;99.90;;;;;;4987867;28;20557;-69
2022/02/27 01:37:33;;;;;;;5.93;3.87;;;4.80;99.90;;;;;;4971139;28;20452;-68
2022/02/27 01:40:00;;;;;;;5.33;4.20;;;4.80;99.90;;;;;;4988855;28;20461;-70
2022/02/27 01:42:26;;;;;;;5.97;3.70;;;4.80;99.90;;;;;;4989134;28;20472;-68
2022/02/27 01:44:53;;;;;;;9.63;3.70;;;4.80;99.90;;;;;;4983222;28;20460;-70
2022/02/27 01:47:19;;;;;;;7.80;4.20;;;4.80;99.90;;;;;;5000533;28;20457;-69
2022/02/27 01:49:47;;;;;;;7.77;4.10;;;4.80;99.90;;;;;;4983094;28;20221;-68
2022/02/27 01:52:14;;;;;;;10.20;4.20;;;4.80;99.90;;;;;;5004721;28;20308;-70
2022/02/27 01:54:41;;;;;;;7.23;4.67;;;4.80;99.90;;;;;;4988804;28;20460;-69
2022/02/27 01:57:10;;;;;;;7.23;4.10;;;4.80;99.90;;;;;;4981805;28;20449;-71
2022/02/27 01:59:37;;;;;;;15.97;4.77;;;4.70;99.90;;;;;;4990837;28;20492;-71
2022/02/27 02:02:04;;;;;;;7.30;4.03;;;4.70;99.90;;;;;;4982064;28;20472;-69
2022/02/27 02:04:31;;;;;;;8.83;3.70;;;4.70;99.90;;;;;;4975196;28;20504;-69
2022/02/27 02:06:58;;;;;;;8.00;4.47;;;4.70;99.90;;;;;;4976318;28;20541;-69
2022/02/27 02:09:24;;;;;;;6.47;4.20;;;4.70;99.90;;;;;;4987579;28;20491;-69
2022/02/27 02:11:53;;;;;;;11.40;4.93;;;4.70;99.90;;;;;;4975403;28;20482;-70
2022/02/27 02:14:19;;;;;;;8.77;4.20;;;4.70;99.90;;;;;;4988878;28;20536;-68
2022/02/27 02:16:51;;;;;;;6.00;4.00;;;4.70;99.90;;;;;;4988536;28;20995;-71
2022/02/27 02:19:20;;;;;;;9.00;3.83;;;4.70;99.90;;;;;;4987578;28;20460;-71
2022/02/27 02:21:49;;;;;;;6.17;3.77;;;4.70;99.90;;;;;;4987852;28;20442;-69
2022/02/27 02:24:18;;;;;;;5.30;4.03;;;4.70;99.90;;;;;;4987223;28;20456;-71
2022/02/27 02:26:45;;;;;;;6.77;4.57;;;4.70;99.90;;;;;;4983464;28;20963;-68
2022/02/27 02:29:17;;;;;;;7.63;4.47;;;4.70;99.90;;;;;;4992176;28;20493;-69
2022/02/27 02:31:44;;;;;;;7.27;3.70;;;4.60;99.90;;;;;;4988717;28;20988;-69
2022/02/27 02:34:12;;;;;;;4.70;4.00;;;4.60;99.90;;;;;;4984488;28;21021;-68
2022/02/27 02:36:40;;;;;;;4.30;3.50;;;4.60;99.90;;;;;;4979469;28;20470;-69
2022/02/27 02:39:08;;;;;;;9.60;5.23;;;4.60;99.90;;;;;;4987429;28;20883;-69
2022/02/27 02:41:35;;;;;;;9.27;4.50;;;4.50;99.90;;;;;;5006968;28;20480;-68
2022/02/27 02:44:06;;;;;;;4.90;4.10;;;4.40;99.90;;;;;;5008262;28;22686;-71
2022/02/27 02:46:35;;;;;;;5.73;4.40;;;4.40;99.90;;;;;;4987261;28;20539;-69
2022/02/27 02:49:02;;;;;;;11.27;5.30;;;4.40;99.90;;;;;;4991152;28;20508;-68
2022/02/27 02:51:40;;;;;;;14.70;4.13;;;4.40;99.90;;;;;;4991456;28;20476;-69
2022/02/27 02:54:07;;;;;;;5.20;3.60;;;4.40;99.90;;;;;;4991454;28;20575;-69
2022/02/27 02:56:33;;;;;;;6.30;4.07;;;4.30;99.90;;;;;;4980724;28;20465;-69
2022/02/27 02:58:59;;;;;;;5.60;4.20;;;4.30;99.90;;;;;;4966243;28;20466;-68
2022/02/27 03:01:25;;;;;;;4.40;3.73;;;4.30;99.90;;;;;;4986641;28;20464;-68
2022/02/27 03:03:51;;;;;;;4.90;3.70;;;4.30;99.90;;;;;;4990897;28;20461;-68
2022/02/27 03:06:18;;;;;;;6.03;4.13;;;4.20;99.90;;;;;;4979334;28;20510;-68
2022/02/27 03:08:46;;;;;;;11.17;4.03;;;4.20;99.90;;;;;;4992828;28;20464;-68
2022/02/27 03:11:13;;;;;;;7.37;4.30;;;4.20;99.90;;;;;;5004548;28;20453;-68
2022/02/27 03:13:39;;;;;;;5.70;4.10;;;4.20;99.90;;;;;;4992864;28;20480;-68
2022/02/27 03:16:05;;;;;;;6.80;3.73;;;4.10;99.90;;;;;;4991411;28;20457;-69
2022/02/27 03:18:31;;;;;;;6.13;4.13;;;4.10;99.90;;;;;;4985442;28;20233;-70
2022/02/27 03:20:58;;;;;;;8.20;3.83;;;4.10;99.90;;;;;;4988523;28;20467;-68
2022/02/27 03:23:24;;;;;;;8.23;5.10;;;4.20;99.90;;;;;;4988225;28;20454;-74
2022/02/27 03:25:50;;;;;;;5.80;4.07;;;4.20;99.90;;;;;;4990768;28;20468;-68
2022/02/27 03:28:16;;;;;;;7.00;4.37;;;4.20;99.90;;;;;;4992717;28;20453;-68
2022/02/27 03:30:42;;;;;;;6.67;4.40;;;4.10;99.90;;;;;;4991737;28;20644;-69
2022/02/27 03:33:08;;;;;;;10.03;4.13;;;4.10;99.90;;;;;;4993653;28;20253;-68
2022/02/27 03:35:35;;;;;;;5.10;4.17;;;4.10;99.90;;;;;;4991254;28;20225;-70
2022/02/27 03:38:01;;;;;;;7.83;4.80;;;4.10;99.90;;;;;;4991846;28;20465;-69
2022/02/27 03:40:27;;;;;;;5.90;4.10;;;4.10;99.90;;;;;;4991171;28;20485;-69
2022/02/27 03:42:53;;;;;;;7.50;4.70;;;4.00;99.90;;;;;;4990916;28;20496;-69
2022/02/27 03:45:19;;;;;;;5.10;3.67;;;4.00;99.90;;;;;;4987483;28;20218;-67
2022/02/27 03:47:45;;;;;;;5.03;3.80;;;4.00;99.90;;;;;;4979545;28;20214;-68
2022/02/27 03:50:12;;;;;;;10.27;4.57;;;4.00;99.90;;;;;;4990206;28;20540;-69
2022/02/27 03:52:38;;;;;;;6.20;3.43;;;3.80;99.90;;;;;;4981085;28;20489;-69
2022/02/27 03:55:11;;;;;;;8.33;4.27;;;3.80;99.90;;;;;;4991637;28;20445;-70
2022/02/27 03:57:37;;;;;;;5.93;4.50;;;3.80;99.90;;;;;;4998648;28;20217;-68
2022/02/27 04:00:06;;;;;;;5.50;3.63;;;3.80;99.90;;;;;;4990171;28;20464;-69
2022/02/27 04:02:38;;;;;;;4.90;4.40;;;3.80;99.90;;;;;;4979734;28;20454;-69
2022/02/27 04:05:04;;;;;;;5.43;3.53;;;3.80;99.90;;;;;;4986030;28;20460;-69
2022/02/27 04:07:30;;;;;;;8.30;3.60;;;3.80;99.90;;;;;;5007085;28;20850;-69
2022/02/27 04:09:56;;;;;;;6.97;4.17;;;3.80;99.90;;;;;;4990082;28;20476;-68
2022/02/27 04:12:22;;;;;;;6.03;4.10;;;3.80;99.90;;;;;;4987581;28;20226;-68
2022/02/27 04:14:47;;;;;;;9.23;3.50;;;3.80;99.90;;;;;;4989079;28;20229;-68
2022/02/27 04:17:13;;;;;;;6.37;4.30;;;3.80;99.90;;;;;;4975430;28;20230;-69
2022/02/27 04:19:39;;;;;;;4.40;3.57;;;3.80;99.90;;;;;;4982935;28;20218;-69
2022/02/27 04:22:05;;;;;;;7.80;4.27;;;3.80;99.90;;;;;;4985169;28;20279;-69
2022/02/27 04:24:30;;;;;;;4.80;3.80;;;3.70;99.90;;;;;;5007083;28;20237;-70
2022/02/27 04:26:58;;;;;;;7.07;4.40;;;3.70;99.90;;;;;;4989293;28;20618;-68
2022/02/27 04:29:24;;;;;;;7.43;4.70;;;3.70;99.90;;;;;;4989581;28;20226;-70
2022/02/27 04:31:50;;;;;;;7.40;4.83;;;3.70;99.90;;;;;;4991398;28;20457;-69
2022/02/27 04:34:15;;;;;;;5.63;4.10;;;3.70;99.90;;;;;;4989396;28;20476;-69
2022/02/27 04:36:41;;;;;;;6.40;4.50;;;3.70;99.90;;;;;;4990445;28;20240;-69
2022/02/27 04:39:07;;;;;;;8.07;4.50;;;3.70;99.90;;;;;;4989358;28;20232;-67
2022/02/27 04:41:32;;;;;;;5.67;4.43;;;3.70;99.90;;;;;;4989365;28;20225;-68
2022/02/27 04:43:58;;;;;;;9.00;4.60;;;3.70;99.90;;;;;;4989375;28;20360;-70
2022/02/27 04:46:24;;;;;;;10.60;4.30;;;3.70;99.90;;;;;;4991125;28;20217;-69
2022/02/27 04:48:49;;;;;;;6.53;4.13;;;3.70;99.90;;;;;;4989473;28;20222;-69
2022/02/27 04:51:15;;;;;;;6.77;5.10;;;3.60;99.90;;;;;;4990454;28;20321;-68
2022/02/27 04:53:41;;;;;;;6.57;4.67;;;3.60;99.90;;;;;;4990393;28;20222;-69
2022/02/27 04:56:08;;;;;;;8.70;4.77;;;3.60;99.90;;;;;;4989457;28;20229;-69
2022/02/27 04:58:34;;;;;;;5.60;3.80;;;3.60;99.90;;;;;;4991042;28;20241;-70
2022/02/27 05:01:00;;;;;;;6.77;5.60;;;3.60;99.90;;;;;;5004700;28;20890;-68
2022/02/27 05:03:25;;;;;;;8.23;4.97;;;3.50;99.90;;;;;;4982072;28;20222;-69
2022/02/27 05:05:51;;;;;;;7.00;4.00;;;3.50;99.90;;;;;;4988617;28;20229;-71
2022/02/27 05:08:16;;;;;;;9.63;4.43;;;3.50;99.90;;;;;;5005771;28;20229;-68
2022/02/27 05:10:42;;;;;;;6.10;4.80;;;3.50;99.90;;;;;;4984138;28;20317;-70
2022/02/27 05:13:08;;;;;;;9.60;4.67;;;3.50;99.90;;;;;;4986381;28;20292;-70
2022/02/27 05:15:34;;;;;;;4.60;4.20;;;3.50;99.90;;;;;;4989107;28;20226;-67
2022/02/27 05:17:59;;;;;;;8.93;4.97;;;3.50;99.90;;;;;;4990228;28;20229;-69
2022/02/27 05:20:25;;;;;;;7.27;4.10;;;3.50;99.90;;;;;;4986801;28;20366;-70
2022/02/27 05:22:51;;;;;;;5.10;4.57;;;3.50;99.90;;;;;;4986365;28;20228;-69
2022/02/27 05:25:19;;;;;;;5.50;4.40;;;3.50;99.90;;;;;;4989291;28;20214;-69
2022/02/27 05:27:53;;;;;;;5.97;4.50;;;3.40;99.90;;;;;;4990482;28;20958;-68
2022/02/27 05:30:20;;;;;;;5.97;4.17;;;3.40;99.90;;;;;;4988205;28;20446;-67
2022/02/27 05:32:46;;;;;;;3.60;3.10;;;3.40;99.90;;;;;;4984027;28;20474;-69
2022/02/27 05:35:12;;;;;;;12.10;4.50;;;3.40;99.90;;;;;;4977804;28;20480;-69
2022/02/27 05:37:38;;;;;;;5.87;3.60;;;3.40;99.90;;;;;;4989003;28;21005;-69
2022/02/27 05:40:05;;;;;;;5.47;3.93;;;3.30;99.90;;;;;;4972082;28;20292;-68
2022/02/27 05:42:32;;;;;;;5.77;3.90;;;3.30;99.90;;;;;;4989278;28;20465;-69
2022/02/27 05:44:58;;;;;;;10.17;3.57;;;3.30;99.90;;;;;;4987488;28;20463;-68
2022/02/27 05:47:24;;;;;;;6.37;3.30;;;3.30;99.90;;;;;;4988492;28;20453;-68
2022/02/27 05:49:49;;;;;;;8.47;4.23;;;3.30;99.90;;;;;;4988100;28;20218;-71
2022/02/27 05:52:15;;;;;;;3.87;3.10;;;3.30;99.90;;;;;;4987559;28;20301;-69
2022/02/27 05:54:41;;;;;;;8.30;2.90;;;3.30;99.90;;;;;;4978516;28;20765;-68
2022/02/27 05:57:07;;;;;;;4.37;3.30;;;3.20;99.90;;;;;;4987562;28;20304;-66
2022/02/27 05:59:33;;;;;;;12.77;6.23;;;3.20;99.90;;;;;;4969744;28;20218;-67
2022/02/27 06:01:58;;;;;;;10.93;6.70;;;3.20;99.90;;;;;;4985639;28;20544;-69
2022/02/27 06:04:24;;;;;;;11.87;5.37;;;3.20;99.90;;;;;;4983276;28;20321;-69
2022/02/27 06:06:50;;;;;;;8.13;5.33;;;3.20;99.90;;;;;;4989225;28;20775;-68
2022/02/27 06:09:16;;;;;;;5.30;3.70;;;3.20;99.90;;;;;;4990036;28;20328;-66
2022/02/27 06:11:41;;;;;;;4.07;3.10;;;3.20;99.90;;;;;;4988952;28;20313;-69
2022/02/27 06:14:07;;;;;;;3.73;3.30;;;3.20;99.90;;;;;;4982883;28;20311;-68
2022/02/27 06:16:34;;;;;;;7.43;3.67;;;3.20;99.90;;;;;;4987689;28;20309;-69
2022/02/27 06:18:59;;;;;;;6.60;3.83;;;3.20;99.90;;;;;;4972191;28;20226;-68
2022/02/27 06:21:25;;;;;;;10.23;4.63;;;3.20;99.90;;;;;;4972074;28;20457;-68
2022/02/27 06:23:51;;;;;;;9.63;2.90;;;3.20;99.90;;;;;;4986175;28;20313;-69
2022/02/27 06:26:17;;;;;;;4.67;3.10;;;3.20;99.90;;;;;;4972959;28;20969;-69
2022/02/27 06:28:43;;;;;;;5.13;3.13;;;3.20;99.90;;;;;;5004421;28;20309;-70
2022/02/27 06:31:09;;;;;;;6.90;2.90;;;3.20;99.90;;;;;;4985636;28;20515;-69
2022/02/27 06:33:35;;;;;;;12.57;3.60;;;3.20;99.90;;;;;;4982489;28;20473;-69
2022/02/27 06:36:01;;;;;;;4.17;2.87;;;3.20;99.90;;;;;;4988117;28;20225;-68
2022/02/27 06:38:27;;;;;;;4.67;3.07;;;3.20;99.90;;;;;;4985015;28;20602;-68
2022/02/27 06:40:52;;;;;;;6.30;3.47;;;3.20;99.90;;;;;;4977794;28;20218;-69
2022/02/27 06:43:18;;;;;;;6.00;5.43;;;3.20;99.90;;;;;;4984866;28;20666;-69
2022/02/27 06:45:44;;;;;;;20.00;10.20;;;3.20;99.90;;;;;;4987509;28;20224;-68
2022/02/27 06:48:10;;;;;;;12.50;8.47;;;3.20;99.90;;;;;;4987728;28;20253;-68
2022/02/27 06:50:35;;;;;;;8.03;6.20;;;3.20;99.90;;;;;;4988246;28;20284;-71
2022/02/27 06:53:01;;;;;;;9.77;5.40;;;3.20;99.90;;;;;;4986271;28;20242;-69
2022/02/27 06:55:27;;;;;;;10.33;5.63;;;3.20;99.90;;;;;;4987687;28;20651;-69
2022/02/27 06:57:52;;;;;;;11.13;6.30;;;3.20;99.90;;;;;;4987458;28;20273;-68
2022/02/27 07:00:19;;;;;;;13.10;6.43;;;3.20;99.90;;;;;;4989841;28;20237;-68
2022/02/27 07:02:45;;;;;;;7.83;5.50;;;3.20;99.90;;;;;;4993708;28;20305;-69
2022/02/27 07:05:11;;;;;;;7.43;5.50;;;3.20;99.90;;;;;;4978177;28;20465;-68
2022/02/27 07:07:37;;;;;;;5.63;3.97;;;3.20;99.90;;;;;;4985364;28;20481;-69
2022/02/27 07:10:05;;;;;;;6.07;4.77;;;3.20;99.90;;;;;;4968389;28;20230;-68
2022/02/27 07:12:32;;;;;;;6.00;4.67;;;3.20;99.90;;;;;;4970254;28;20862;-67
2022/02/27 07:14:58;;;;;;;10.37;5.30;;;3.20;99.90;;;;;;4967269;28;20870;-68
2022/02/27 07:17:24;;;;;;;13.30;5.43;;;3.20;99.90;;;;;;4989766;28;20446;-68
2022/02/27 07:19:51;;;;;;;6.97;4.57;;;3.20;99.90;;;;;;4987036;28;20219;-70
2022/02/27 07:22:17;;;;;;;14.13;4.93;;;3.20;99.90;;;;;;4971737;28;20472;-70
2022/02/27 07:24:43;;;;;;;6.70;5.33;;;3.20;99.90;;;;;;4988082;28;20586;-68
2022/02/27 07:27:09;;;;;;;7.20;5.07;;;3.20;99.90;;;;;;4987923;28;20449;-68
2022/02/27 07:29:35;;;;;;;9.40;5.57;;;3.20;99.90;;;;;;5006951;28;20217;-69
2022/02/27 07:32:01;;;;;;;10.80;5.47;;;3.20;99.90;;;;;;4969391;28;20480;-69
2022/02/27 07:34:27;;;;;;;8.20;6.40;;;3.30;99.90;;;;;;4991705;28;20488;-68
2022/02/27 07:36:55;;;;;;;8.57;5.60;;;3.30;99.90;;;;;;4991241;28;20257;-69
2022/02/27 07:39:25;;;;;;;7.20;5.90;;;3.30;99.90;;;;;;4993534;28;20479;-69
2022/02/27 07:41:52;;;;;;;8.23;5.70;;;3.30;99.90;;;;;;4984312;28;20457;-68
2022/02/27 07:44:19;;;;;;;8.10;6.47;;;3.30;99.90;;;;;;4992563;28;20847;-69
2022/02/27 07:46:47;;;;;;;7.80;5.03;;;3.30;99.90;;;;;;4983408;28;20455;-68
2022/02/27 07:49:13;;;;;;;4.23;3.83;;;3.30;99.90;;;;;;4973052;28;20226;-68
2022/02/27 07:51:39;;;;;;;6.80;3.80;;;3.40;99.90;;;;;;4992339;28;20534;-69
2022/02/27 07:54:05;;;;;;;9.13;5.00;;;3.40;99.90;;;;;;5004438;28;20538;-69
2022/02/27 07:56:31;;;;;;;7.07;3.90;;;3.40;99.90;;;;;;4987789;28;21036;-72
2022/02/27 07:58:57;;;;;;;5.67;3.60;;;3.40;99.90;;;;;;4977307;28;20361;-68
2022/02/27 08:01:23;;;;;;;5.57;3.90;;;3.40;99.90;;;;;;4970471;28;20477;-67
2022/02/27 08:03:49;;;;;;;5.53;4.20;;;3.50;99.90;;;;;;4980015;28;20465;-67
2022/02/27 08:06:15;;;;;;;6.40;4.23;;;3.50;99.90;;;;;;4990237;28;20461;-68
2022/02/27 08:08:40;;;;;;;4.43;3.50;;;3.50;99.90;;;;;;4992208;28;20221;-69
2022/02/27 08:11:07;;;;;;;9.53;4.03;;;3.50;99.90;;;;;;4989533;28;20257;-70
2022/02/27 08:13:34;;;;;;;9.10;5.17;;;3.60;99.90;;;;;;4991880;28;20225;-69
2022/02/27 08:15:59;;;;;;;10.83;3.90;;;3.60;99.90;;;;;;4989550;28;20461;-68
2022/02/27 08:18:26;;;;;;;6.23;3.67;;;3.60;99.90;;;;;;4991519;28;20457;-68
2022/02/27 08:20:52;;;;;;;6.13;4.27;;;3.70;99.90;;;;;;4989019;28;20231;-69
2022/02/27 08:23:18;;;;;;;7.60;4.70;;;3.70;99.90;;;;;;4993274;28;20460;-70
2022/02/27 08:25:45;;;;;;;7.23;4.30;;;3.70;99.90;;;;;;4997249;28;20241;-69
2022/02/27 08:28:11;;;;;;;6.70;3.97;;;3.80;99.90;;;;;;4973666;28;20458;-72
2022/02/27 08:30:37;;;;;;;7.33;3.97;;;3.90;99.90;;;;;;4978652;28;20466;-68
2022/02/27 08:33:03;;;;;;;6.77;3.40;;;4.00;99.90;;;;;;4996273;28;20226;-68
2022/02/27 08:35:28;;;;;;;8.00;4.60;;;4.00;99.90;;;;;;4966550;28;20454;-69
2022/02/27 08:37:54;;;;;;;8.27;4.77;;;4.10;99.90;;;;;;4976811;28;20453;-69
2022/02/27 08:40:20;;;;;;;5.97;3.40;;;4.20;99.90;;;;;;4981652;28;20606;-69
2022/02/27 08:42:51;;;;;;;16.80;6.87;;;4.20;99.90;;;;;;4967860;28;20313;-68
2022/02/27 08:45:17;;;;;;;15.17;9.37;;;4.30;99.90;;;;;;4979321;28;20471;-69
2022/02/27 08:47:43;;;;;;;13.50;9.50;;;4.40;99.90;;;;;;4987540;28;20465;-68
2022/02/27 08:50:09;;;;;;;17.13;11.10;;;4.40;99.90;;;;;;4983864;28;20245;-69
2022/02/27 08:52:34;;;;;;;21.43;13.30;;;4.40;99.90;;;;;;4991987;28;20272;-68
2022/02/27 08:55:00;;;;;;;25.33;16.70;;;4.50;99.90;;;;;;4978499;28;20457;-68
2022/02/27 08:57:26;;;;;;;27.27;16.40;;;4.50;99.90;;;;;;4980193;28;20218;-69
2022/02/27 08:59:52;;;;;;;23.63;14.90;;;4.60;99.90;;;;;;4979334;28;20265;-70
2022/02/27 09:02:17;;;;;;;28.37;16.00;;;4.60;99.90;;;;;;4985443;28;20704;-71
2022/02/27 09:04:44;;;;;;;25.50;16.53;;;4.70;99.90;;;;;;4978791;28;20690;-69
2022/02/27 09:07:10;;;;;;;22.10;13.57;;;4.80;99.90;;;;;;4997153;28;20221;-69
2022/02/27 09:09:35;;;;;;;20.90;13.87;;;4.90;99.90;;;;;;4981350;28;20517;-70
2022/02/27 09:12:06;;;;;;;15.63;10.70;;;5.00;99.90;;;;;;4979636;28;20453;-69
2022/02/27 09:14:33;;;;;;;20.57;10.50;;;5.20;99.90;;;;;;4982557;28;20254;-70
2022/02/27 09:16:59;;;;;;;15.03;8.63;;;5.30;99.90;;;;;;4986234;28;20481;-71
2022/02/27 09:19:25;;;;;;;14.83;8.30;;;5.30;99.90;;;;;;4980083;28;20472;-69
2022/02/27 09:21:50;;;;;;;13.30;6.50;;;5.40;99.90;;;;;;4978351;28;20458;-71
2022/02/27 09:24:18;;;;;;;10.10;5.70;;;5.50;99.90;;;;;;4984513;28;20249;-71
2022/02/27 09:26:45;;;;;;;6.07;4.60;;;5.70;99.90;;;;;;4986474;28;20469;-68
2022/02/27 09:29:14;;;;;;;7.80;4.73;;;5.90;99.90;;;;;;4970178;28;20603;-71
2022/02/27 09:31:40;;;;;;;7.87;5.07;;;6.00;99.90;;;;;;4987998;28;20479;-68
2022/02/27 09:34:06;;;;;;;8.23;4.80;;;5.80;99.90;;;;;;4981794;28;20445;-69
2022/02/27 09:36:33;;;;;;;6.13;4.03;;;5.80;99.90;;;;;;4982540;28;20280;-69
2022/02/27 09:38:59;;;;;;;12.30;5.20;;;5.70;99.90;;;;;;4984605;28;20471;-69
2022/02/27 09:41:25;;;;;;;11.00;5.17;;;5.80;99.90;;;;;;4986633;28;20548;-69
2022/02/27 09:43:53;;;;;;;6.77;3.80;;;5.80;99.90;;;;;;4981190;28;20551;-69
2022/02/27 09:46:20;;;;;;;11.80;4.43;;;5.80;99.90;;;;;;4980441;28;20313;-70
2022/02/27 09:48:46;;;;;;;10.77;5.07;;;6.00;99.90;;;;;;4988197;28;20496;-69
2022/02/27 09:51:12;;;;;;;11.20;5.70;;;6.20;99.90;;;;;;4980908;28;20479;-69
2022/02/27 09:53:39;;;;;;;18.47;8.73;;;6.20;99.90;;;;;;4983199;28;20469;-68
2022/02/27 09:56:05;;;;;;;14.60;8.60;;;6.30;99.90;;;;;;4979161;28;20469;-69
2022/02/27 09:58:30;;;;;;;13.63;6.30;;;6.30;99.90;;;;;;4987638;28;20488;-68
2022/02/27 10:00:56;;;;;;;7.40;5.17;;;6.40;99.90;;;;;;4984694;28;20484;-69
2022/02/27 10:03:27;;;;;;;7.53;5.00;;;6.50;99.90;;;;;;4999141;28;20283;-70
2022/02/27 10:06:00;;;;;;;6.50;4.30;;;6.40;99.90;;;;;;4983726;28;20278;-70
2022/02/27 10:08:39;;;;;;;12.43;4.43;;;6.40;99.90;;;;;;4976530;28;20993;-68
2022/02/27 10:11:06;;;;;;;7.77;4.87;;;6.50;99.90;;;;;;4985875;28;20508;-70
2022/02/27 10:13:36;;;;;;;7.23;4.43;;;6.50;99.90;;;;;;4982257;28;20473;-68
2022/02/27 10:16:25;;;;;;;9.13;4.83;;;6.50;99.90;;;;;;4986790;28;21060;-68
2022/02/27 10:18:52;;;;;;;9.93;4.53;;;6.50;99.90;;;;;;4981422;28;20540;-69
2022/02/27 10:21:39;;;;;;;7.53;4.30;;;6.50;99.90;;;;;;5003772;28;20453;-70
2022/02/27 10:24:10;;;;;;;6.43;4.30;;;6.50;99.90;;;;;;4985194;28;20462;-68
2022/02/27 10:26:39;;;;;;;10.73;4.33;;;6.60;99.90;;;;;;4979745;28;20460;-68
2022/02/27 10:29:07;;;;;;;7.47;4.80;;;6.70;99.90;;;;;;4988625;28;20514;-70
2022/02/27 10:31:34;;;;;;;8.70;5.50;;;6.80;99.90;;;;;;4988703;28;20457;-70
2022/02/27 10:34:24;;;;;;;8.27;4.70;;;6.90;99.90;;;;;;4986605;28;20473;-69
2022/02/27 10:37:05;;;;;;;6.80;4.50;;;7.00;99.90;;;;;;4987141;28;20463;-70
2022/02/27 10:39:46;;;;;;;10.10;6.43;;;7.20;99.90;;;;;;4978127;28;20473;-69
2022/02/27 10:42:21;;;;;;;12.93;6.30;;;7.20;99.90;;;;;;4978226;28;20465;-69
2022/02/27 10:44:52;;;;;;;13.07;6.00;;;7.30;99.90;;;;;;4973169;28;20528;-70
2022/02/27 10:47:35;;;;;;;10.07;4.70;;;7.30;99.90;;;;;;4982993;28;20537;-69
2022/02/27 10:50:13;;;;;;;8.20;3.90;;;7.60;99.90;;;;;;4978171;28;20466;-67
2022/02/27 10:52:46;;;;;;;7.90;4.00;;;7.70;99.90;;;;;;4993727;28;20478;-69
2022/02/27 10:55:14;;;;;;;7.07;4.10;;;7.90;99.90;;;;;;4982683;28;20449;-69
2022/02/27 10:57:45;;;;;;;6.17;3.80;;;8.00;99.90;;;;;;4998874;28;20452;-69
2022/02/27 11:00:24;;;;;;;7.87;4.40;;;8.00;99.90;;;;;;4998394;28;20485;-70
2022/02/27 11:02:55;;;;;;;7.30;4.00;;;7.90;99.90;;;;;;4990989;28;20452;-69
2022/02/27 11:05:37;;;;;;;5.00;3.73;;;7.90;99.90;;;;;;4989408;28;20460;-68
2022/02/27 11:08:06;;;;;;;7.90;3.90;;;8.10;99.90;;;;;;4990291;28;20453;-68
2022/02/27 11:10:34;;;;;;;8.53;3.53;;;8.20;99.90;;;;;;4989795;28;20468;-69
2022/02/27 11:13:03;;;;;;;6.90;3.53;;;8.30;99.90;;;;;;5003110;28;21085;-69
2022/02/27 11:15:29;;;;;;;10.50;3.80;;;8.40;99.90;;;;;;4974720;28;20460;-70
2022/02/27 11:17:56;;;;;;;9.03;4.10;;;8.30;99.90;;;;;;4987457;28;20549;-69
2022/02/27 11:20:23;;;;;;;4.50;3.00;;;8.30;99.90;;;;;;4986590;28;20472;-68
2022/02/27 11:22:51;;;;;;;6.03;3.67;;;8.20;99.90;;;;;;4983939;28;20496;-71
2022/02/27 11:25:18;;;;;;;6.97;3.90;;;8.00;99.90;;;;;;4992064;28;20465;-70
2022/02/27 11:27:50;;;;;;;9.07;3.60;;;8.00;99.90;;;;;;4991228;28;20464;-68
2022/02/27 11:30:19;;;;;;;3.70;3.37;;;8.20;99.90;;;;;;4987365;28;20461;-68
2022/02/27 11:32:54;;;;;;;7.97;2.80;;;8.10;99.90;;;;;;4987748;28;20485;-68
2022/02/27 11:35:44;;;;;;;5.50;3.17;;;8.20;99.90;;;;;;4982511;28;20480;-69
2022/02/27 11:38:31;;;;;;;7.17;3.20;;;8.30;99.90;;;;;;4985766;28;20469;-70
2022/02/27 11:41:17;;;;;;;8.30;3.30;;;8.30;99.90;;;;;;4990197;28;20457;-69
2022/02/27 11:44:13;;;;;;;3.77;2.90;;;8.30;99.90;;;;;;4957740;28;20457;-69
2022/02/27 11:46:41;;;;;;;6.63;4.10;;;8.30;99.90;;;;;;4982043;28;20458;-70
2022/02/27 11:49:11;;;;;;;6.03;3.23;;;8.40;99.90;;;;;;4978450;28;20984;-73
2022/02/27 11:51:36;;;;;;;6.00;3.97;;;8.40;99.90;;;;;;4988559;28;20457;-70
2022/02/27 11:54:23;;;;;;;4.50;3.53;;;8.40;99.90;;;;;;4987646;28;20588;-69
2022/02/27 11:57:00;;;;;;;5.63;2.90;;;8.50;99.90;;;;;;4985809;28;20221;-69
2022/02/27 12:00:02;;;;;;;4.77;3.33;;;8.40;99.90;;;;;;4988230;28;20476;-73
2022/02/27 12:02:30;;;;;;;3.63;2.90;;;8.30;99.90;;;;;;4988835;28;21042;-69
2022/02/27 12:04:58;;;;;;;2.83;2.60;;;8.60;99.90;;;;;;4985452;28;20457;-68
2022/02/27 12:07:26;;;;;;;7.27;4.30;;;8.90;99.90;;;;;;4982905;28;20218;-70
2022/02/27 12:09:51;;;;;;;24.43;12.10;;;9.00;99.90;;;;;;4996799;28;20466;-69
2022/02/27 12:12:40;;;;;;;15.40;8.10;;;9.10;99.90;;;;;;4984217;28;20535;-70
2022/02/27 12:15:31;;;;;;;9.73;6.03;;;9.30;99.90;;;;;;4968303;28;20218;-69
2022/02/27 12:18:04;;;;;;;9.00;7.03;;;9.40;99.90;;;;;;4988657;28;20453;-70
2022/02/27 12:20:42;;;;;;;6.27;4.80;;;9.40;99.90;;;;;;4988222;28;20465;-69
2022/02/27 12:23:31;;;;;;;4.70;2.97;;;9.60;99.90;;;;;;4984288;28;20461;-70
2022/02/27 12:25:59;;;;;;;4.43;2.63;;;9.70;99.90;;;;;;4978761;28;20817;-69
2022/02/27 12:28:52;;;;;;;4.00;2.97;;;9.70;99.90;;;;;;4988106;28;20459;-70
2022/02/27 12:31:19;;;;;;;3.30;2.60;;;9.80;99.90;;;;;;4952400;28;20546;-72
2022/02/27 12:33:45;;;;;;;2.53;1.90;;;9.90;99.90;;;;;;4983417;28;21001;-72
2022/02/27 12:36:19;;;;;;;2.37;2.20;;;10.00;99.50;;;;;;4982895;28;20493;-71
2022/02/27 12:38:48;;;;;;;2.97;2.50;;;9.90;99.90;;;;;;4990559;28;20481;-70
2022/02/27 12:41:17;;;;;;;2.70;2.40;;;9.90;99.90;;;;;;4991559;28;20453;-69
2022/02/27 12:43:43;;;;;;;2.10;1.90;;;10.00;99.00;;;;;;4970163;28;20465;-70
2022/02/27 12:46:09;;;;;;;4.30;2.73;;;10.10;98.30;;;;;;4981670;28;20471;-72
2022/02/27 12:51:20;;;;;;;2.20;1.90;;;10.20;97.50;;;;;;4981323;28;20230;-69
2022/02/27 12:53:46;;;;;;;2.80;2.47;;;10.20;98.80;;;;;;4991327;28;20547;-70
2022/02/27 12:56:21;;;;;;;2.43;2.23;;;10.10;98.10;;;;;;4980932;28;20537;-70
2022/02/27 12:58:49;;;;;;;2.60;2.03;;;10.10;98.70;;;;;;4979264;28;20222;-69
2022/02/27 13:01:15;;;;;;;2.77;2.40;;;10.10;98.40;;;;;;5001832;28;20465;-69